createdAt,value
2023-01-27T00:02:00.771Z,20.83
2023-01-27T00:04:33.906Z,20.50
2023-01-27T00:07:08.279Z,21.67
2023-01-27T00:09:41.856Z,20.13
2023-01-27T00:12:39.024Z,21.77
2023-01-27T00:15:14.678Z,20.37
2023-01-27T00:17:47.759Z,21.13
2023-01-27T00:20:42.814Z,21.13
2023-01-27T00:23:37.343Z,22.80
2023-01-27T00:26:14.525Z,23.77
2023-01-27T00:28:48.850Z,22.13
2023-01-27T00:31:39.786Z,22.27
2023-01-27T00:34:12.882Z,22.13
2023-01-27T00:36:45.907Z,22.33
2023-01-27T00:39:20.338Z,21.70
2023-01-27T00:41:53.417Z,21.53
2023-01-27T00:44:26.469Z,21.97
2023-01-27T00:46:59.670Z,20.67
2023-01-27T00:49:32.675Z,22.40
2023-01-27T00:52:05.964Z,21.20
2023-01-27T00:54:40.368Z,23.13
2023-01-27T00:57:13.418Z,23.00
2023-01-27T00:59:46.456Z,22.50
2023-01-27T01:02:19.683Z,22.37
2023-01-27T01:04:52.736Z,22.37
2023-01-27T01:07:26.146Z,22.63
2023-01-27T01:10:00.560Z,22.10
2023-01-27T01:12:33.642Z,22.87
2023-01-27T01:15:08.124Z,20.90
2023-01-27T01:17:41.203Z,23.67
2023-01-27T01:20:14.894Z,21.83
2023-01-27T01:22:48.136Z,22.70
2023-01-27T01:25:22.520Z,23.17
2023-01-27T01:27:55.555Z,21.63
2023-01-27T01:30:29.225Z,22.27
2023-01-27T01:33:02.672Z,21.87
2023-01-27T01:35:39.615Z,23.03
2023-01-27T01:38:13.060Z,21.40
2023-01-27T01:40:47.476Z,22.13
2023-01-27T01:43:22.892Z,22.33
2023-01-27T01:45:57.539Z,22.57
2023-01-27T01:48:37.622Z,23.30
2023-01-27T01:51:16.287Z,22.47
2023-01-27T01:53:54.210Z,22.30
2023-01-27T01:56:35.149Z,23.00
2023-01-27T01:59:12.230Z,22.90
2023-01-27T02:01:45.578Z,23.63
2023-01-27T02:04:23.881Z,24.07
2023-01-27T02:07:02.932Z,23.10
2023-01-27T02:09:36.297Z,23.47
2023-01-27T02:12:11.899Z,23.47
2023-01-27T02:14:45.072Z,23.73
2023-01-27T02:17:18.559Z,23.17
2023-01-27T02:20:02.962Z,23.07
2023-01-27T02:22:44.415Z,22.10
2023-01-27T02:25:27.179Z,22.27
2023-01-27T02:28:02.061Z,21.60
2023-01-27T02:30:35.447Z,22.63
2023-01-27T02:33:12.660Z,23.20
2023-01-27T02:36:03.970Z,23.10
2023-01-27T02:38:42.266Z,21.83
2023-01-27T02:41:21.362Z,22.67
2023-01-27T02:43:57.109Z,21.63
2023-01-27T02:46:30.368Z,22.73
2023-01-27T02:49:03.775Z,21.47
2023-01-27T02:51:37.063Z,21.20
2023-01-27T02:54:10.239Z,21.30
2023-01-27T02:56:43.431Z,21.87
2023-01-27T02:59:17.866Z,22.90
2023-01-27T03:01:50.955Z,21.47
2023-01-27T03:04:23.983Z,22.83
2023-01-27T03:06:57.029Z,22.13
2023-01-27T03:09:30.018Z,21.50
2023-01-27T03:12:21.474Z,22.57
2023-01-27T03:15:14.160Z,22.17
2023-01-27T03:18:05.262Z,21.60
2023-01-27T03:20:38.312Z,22.30
2023-01-27T03:23:12.745Z,22.23
2023-01-27T03:25:48.716Z,20.33
2023-01-27T03:28:21.790Z,21.23
2023-01-27T03:31:01.991Z,20.77
2023-01-27T03:33:36.206Z,21.10
2023-01-27T03:36:26.716Z,22.23
2023-01-27T03:39:17.329Z,21.73
2023-01-27T03:42:07.938Z,20.57
2023-01-27T03:44:58.315Z,20.67
2023-01-27T03:47:32.762Z,21.53
2023-01-27T03:50:11.235Z,20.40
2023-01-27T03:53:03.209Z,21.27
2023-01-27T03:55:38.777Z,22.10
2023-01-27T03:58:21.617Z,20.90
2023-01-27T04:00:57.065Z,21.97
2023-01-27T04:03:53.813Z,22.23
2023-01-27T04:06:48.170Z,23.17
2023-01-27T04:09:24.916Z,23.80
2023-01-27T04:12:00.464Z,23.57
2023-01-27T04:14:37.768Z,23.53
2023-01-27T04:17:14.024Z,24.93
2023-01-27T04:19:48.810Z,23.17
2023-01-27T04:22:21.826Z,23.60
2023-01-27T04:24:54.868Z,24.40
2023-01-27T04:27:28.042Z,23.77
2023-01-27T04:30:01.063Z,23.07
2023-01-27T04:32:34.073Z,22.47
2023-01-27T04:35:09.509Z,22.47
2023-01-27T04:37:42.502Z,22.20
2023-01-27T04:40:15.965Z,19.60
2023-01-27T04:42:49.300Z,18.37
2023-01-27T04:45:22.300Z,19.17
2023-01-27T04:47:55.407Z,18.63
2023-01-27T04:50:29.752Z,20.30
2023-01-27T04:53:02.835Z,20.83
2023-01-27T04:55:35.958Z,20.30
2023-01-27T04:58:08.978Z,18.10
2023-01-27T05:00:42.020Z,15.03
2023-01-27T05:03:15.304Z,14.43
2023-01-27T05:05:49.785Z,12.47
2023-01-27T05:08:22.821Z,11.67
2023-01-27T05:10:55.941Z,11.23
2023-01-27T05:13:28.982Z,11.00
2023-01-27T05:16:12.015Z,11.20
2023-01-27T05:18:47.045Z,11.23
2023-01-27T05:21:24.407Z,10.63
2023-01-27T05:23:57.587Z,10.63
2023-01-27T05:26:30.720Z,10.77
2023-01-27T05:29:03.758Z,10.57
2023-01-27T05:31:37.020Z,11.00
2023-01-27T05:34:10.851Z,10.43
2023-01-27T05:36:45.244Z,12.17
2023-01-27T05:39:18.713Z,12.40
2023-01-27T05:41:51.734Z,11.90
2023-01-27T05:44:24.787Z,11.73
2023-01-27T05:46:57.878Z,11.80
2023-01-27T05:49:30.940Z,11.87
2023-01-27T05:52:05.618Z,12.07
2023-01-27T05:54:38.654Z,12.03
2023-01-27T05:57:11.666Z,12.70
2023-01-27T05:59:44.769Z,12.50
2023-01-27T06:02:17.891Z,12.87
2023-01-27T06:04:50.905Z,13.23
2023-01-27T06:07:25.431Z,12.70
2023-01-27T06:09:58.534Z,13.90
2023-01-27T06:12:31.551Z,13.80
2023-01-27T06:15:05.116Z,13.47
2023-01-27T06:17:38.156Z,13.20
2023-01-27T06:20:13.759Z,12.53
2023-01-27T06:22:50.529Z,13.50
2023-01-27T06:25:23.598Z,11.97
2023-01-27T06:27:57.354Z,11.93
2023-01-27T06:30:30.482Z,13.00
2023-01-27T06:33:04.324Z,11.87
2023-01-27T06:35:40.059Z,13.03
2023-01-27T06:38:15.682Z,12.27
2023-01-27T06:40:48.730Z,13.20
2023-01-27T06:43:21.938Z,12.70
2023-01-27T06:45:57.513Z,12.53
2023-01-27T06:48:30.858Z,13.10
2023-01-27T06:51:04.023Z,12.60
2023-01-27T06:53:38.851Z,13.30
2023-01-27T06:56:11.899Z,13.53
2023-01-27T06:58:44.969Z,14.10
2023-01-27T07:01:18.332Z,15.77
2023-01-27T07:03:51.392Z,16.27
2023-01-27T07:06:24.466Z,15.63
2023-01-27T07:08:58.842Z,16.73
2023-01-27T07:11:31.894Z,17.20
2023-01-27T07:14:05.063Z,17.87
2023-01-27T07:16:38.143Z,18.27
2023-01-27T07:19:12.616Z,16.97
2023-01-27T07:21:45.827Z,17.60
2023-01-27T07:24:20.270Z,17.10
2023-01-27T07:26:53.357Z,17.40
2023-01-27T07:29:27.086Z,17.33
2023-01-27T07:32:00.129Z,16.57
2023-01-27T07:34:33.116Z,16.90
2023-01-27T07:37:06.278Z,16.20
2023-01-27T07:39:40.648Z,17.27
2023-01-27T07:42:13.624Z,17.33
2023-01-27T07:44:46.632Z,16.67
2023-01-27T07:47:19.793Z,18.17
2023-01-27T07:49:52.838Z,16.87
2023-01-27T07:52:25.925Z,16.53
2023-01-27T07:55:00.296Z,17.90
2023-01-27T07:57:33.500Z,18.17
2023-01-27T08:00:08.140Z,17.17
2023-01-27T08:02:41.122Z,18.30
2023-01-27T08:05:14.123Z,18.90
2023-01-27T08:07:47.278Z,17.63
2023-01-27T08:10:21.925Z,18.13
2023-01-27T08:12:54.945Z,17.43
2023-01-27T08:15:27.968Z,18.57
2023-01-27T08:18:02.353Z,17.63
2023-01-27T08:20:35.355Z,18.90
2023-01-27T08:23:08.386Z,18.63
2023-01-27T08:25:42.752Z,17.57
2023-01-27T08:28:15.739Z,16.60
2023-01-27T08:30:51.858Z,15.90
2023-01-27T08:33:25.542Z,15.50
2023-01-27T08:36:03.544Z,15.90
2023-01-27T08:38:37.599Z,15.77
2023-01-27T08:41:15.371Z,15.67
2023-01-27T08:43:49.094Z,15.97
2023-01-27T08:46:22.397Z,15.17
2023-01-27T08:48:55.420Z,14.33
2023-01-27T08:51:28.751Z,15.00
2023-01-27T08:54:01.861Z,15.17
2023-01-27T08:56:36.350Z,16.47
2023-01-27T08:59:09.334Z,14.87
2023-01-27T09:01:42.573Z,15.00
2023-01-27T09:04:15.611Z,15.13
2023-01-27T09:06:49.936Z,16.27
2023-01-27T09:09:22.953Z,15.63
2023-01-27T09:11:57.313Z,15.30
2023-01-27T09:14:30.563Z,14.50
2023-01-27T09:17:03.535Z,15.70
2023-01-27T09:19:36.833Z,16.00
2023-01-27T09:22:09.859Z,14.90
2023-01-27T09:24:42.852Z,15.10
2023-01-27T09:27:20.697Z,13.90
2023-01-27T09:29:57.615Z,14.40
2023-01-27T09:32:30.684Z,12.60
2023-01-27T09:35:04.275Z,12.40
2023-01-27T09:37:43.841Z,11.43
2023-01-27T09:40:31.439Z,12.60
2023-01-27T09:43:29.479Z,11.57
2023-01-27T09:46:25.724Z,11.53
2023-01-27T09:49:20.159Z,11.20
2023-01-27T09:52:15.458Z,10.43
2023-01-27T09:55:00.927Z,10.80
2023-01-27T09:57:44.095Z,9.90
2023-01-27T10:00:41.917Z,10.83
2023-01-27T10:04:03.236Z,10.20
2023-01-27T10:06:53.155Z,9.70
2023-01-27T10:10:14.775Z,9.80
2023-01-27T10:13:12.398Z,10.53
2023-01-27T10:16:06.377Z,10.00
2023-01-27T10:19:07.519Z,10.03
2023-01-27T10:21:53.509Z,10.23
2023-01-27T10:24:40.956Z,10.63
2023-01-27T10:27:21.005Z,10.87
2023-01-27T10:29:59.642Z,10.90
2023-01-27T10:32:44.653Z,11.43
2023-01-27T10:35:21.291Z,11.23
2023-01-27T10:38:10.835Z,11.17
2023-01-27T10:40:53.398Z,11.03
2023-01-27T10:43:39.012Z,10.20
2023-01-27T10:46:23.510Z,11.17
2023-01-27T10:49:05.901Z,9.90
2023-01-27T10:51:43.252Z,11.00
2023-01-27T10:54:25.192Z,10.20
2023-01-27T10:57:01.842Z,9.77
2023-01-27T10:59:46.405Z,9.80
2023-01-27T11:02:31.269Z,9.50
2023-01-27T11:05:10.890Z,9.27
2023-01-27T11:07:50.998Z,9.67
2023-01-27T11:10:30.670Z,10.17
2023-01-27T11:13:06.334Z,10.73
2023-01-27T11:15:39.630Z,11.10
2023-01-27T11:18:18.904Z,11.10
2023-01-27T11:20:59.337Z,10.57
2023-01-27T11:23:35.559Z,10.47
2023-01-27T11:26:23.730Z,11.33
2023-01-27T11:29:17.945Z,11.30
2023-01-27T11:32:00.548Z,10.80
2023-01-27T11:34:42.554Z,11.53
2023-01-27T11:37:23.609Z,11.47
2023-01-27T11:39:56.644Z,11.27
2023-01-27T11:42:33.286Z,11.57
2023-01-27T11:45:07.545Z,11.03
2023-01-27T11:47:42.137Z,11.63
2023-01-27T11:50:18.852Z,10.60
2023-01-27T11:53:07.138Z,11.63
2023-01-27T11:55:43.911Z,11.93
2023-01-27T11:58:24.909Z,12.47
2023-01-27T12:01:03.055Z,12.53
2023-01-27T12:03:51.113Z,12.13
2023-01-27T12:06:36.528Z,11.67
2023-01-27T12:09:33.249Z,10.70
2023-01-27T12:12:25.893Z,13.13
2023-01-27T12:15:03.124Z,11.90
2023-01-27T12:17:41.427Z,10.60
2023-01-27T12:20:37.035Z,12.00
2023-01-27T12:23:21.521Z,11.90
2023-01-27T12:25:59.071Z,13.13
2023-01-27T12:28:35.993Z,13.43
2023-01-27T12:31:12.429Z,13.23
2023-01-27T12:33:50.483Z,13.87
2023-01-27T12:36:24.854Z,15.50
2023-01-27T12:39:01.527Z,17.37
2023-01-27T12:41:38.544Z,16.37
2023-01-27T12:44:18.594Z,16.33
2023-01-27T12:47:01.847Z,17.37
2023-01-27T12:49:40.375Z,16.33
2023-01-27T12:52:21.141Z,16.67
2023-01-27T12:54:56.920Z,16.03
2023-01-27T12:57:34.109Z,16.73
2023-01-27T13:00:16.117Z,15.70
2023-01-27T13:02:49.494Z,16.63
2023-01-27T13:05:22.723Z,17.23
2023-01-27T13:07:55.782Z,16.57
2023-01-27T13:10:29.007Z,17.00
2023-01-27T13:13:05.118Z,16.53
2023-01-27T13:15:38.158Z,16.30
2023-01-27T13:18:21.725Z,17.43
2023-01-27T13:21:00.592Z,18.03
2023-01-27T13:23:38.767Z,17.80
2023-01-27T13:26:18.079Z,18.03
2023-01-27T13:28:58.079Z,17.30
2023-01-27T13:31:47.203Z,18.10
2023-01-27T13:34:30.228Z,20.07
2023-01-27T13:37:13.291Z,19.83
2023-01-27T13:39:58.025Z,19.27
2023-01-27T13:42:40.975Z,19.87
2023-01-27T13:45:20.248Z,20.63
2023-01-27T13:47:59.709Z,20.17
2023-01-27T13:50:39.144Z,21.17
2023-01-27T13:53:14.803Z,20.50
2023-01-27T13:56:02.356Z,20.27
2023-01-27T13:58:49.020Z,21.40
2023-01-27T14:01:39.716Z,19.40
2023-01-27T14:04:43.689Z,19.83
2023-01-27T14:07:29.190Z,21.73
2023-01-27T14:10:17.684Z,20.57
2023-01-27T14:13:08.151Z,20.33
2023-01-27T14:15:49.736Z,20.47
2023-01-27T14:18:29.808Z,19.73
2023-01-27T14:21:15.504Z,19.80
2023-01-27T14:24:01.325Z,20.87
2023-01-27T14:26:49.685Z,19.73
2023-01-27T14:29:34.745Z,18.70
2023-01-27T14:32:22.708Z,18.97
2023-01-27T14:35:19.624Z,18.97
2023-01-27T14:38:03.556Z,17.37
2023-01-27T14:40:47.041Z,18.33
2023-01-27T14:43:34.554Z,17.13
2023-01-27T14:46:20.745Z,17.10
2023-01-27T14:49:09.257Z,16.37
2023-01-27T14:51:50.623Z,16.90
2023-01-27T14:54:56.449Z,21.27
2023-01-27T14:57:39.735Z,18.67
2023-01-27T15:00:32.451Z,17.53
2023-01-27T15:03:34.307Z,16.60
2023-01-27T15:06:16.633Z,15.03
2023-01-27T15:08:58.795Z,17.57
2023-01-27T15:11:57.533Z,16.67
2023-01-27T15:14:54.303Z,15.23
2023-01-27T15:17:43.232Z,15.17
2023-01-27T15:20:35.897Z,15.67
2023-01-27T15:23:41.351Z,15.57
2023-01-27T15:26:20.204Z,14.00
2023-01-27T15:28:53.655Z,16.23
2023-01-27T15:31:28.779Z,14.87
2023-01-27T15:34:22.243Z,14.30
2023-01-27T15:37:05.977Z,14.03
2023-01-27T15:40:04.120Z,13.37
2023-01-27T15:42:57.947Z,14.43
2023-01-27T15:45:32.827Z,14.00
2023-01-27T15:48:12.843Z,13.80
2023-01-27T15:50:49.780Z,16.50
2023-01-27T15:53:31.659Z,20.90
2023-01-27T15:56:06.572Z,17.90
2023-01-27T15:58:43.632Z,19.23
2023-01-27T16:01:27.491Z,16.10
2023-01-27T16:04:14.994Z,16.13
2023-01-27T16:06:52.046Z,15.67
2023-01-27T16:09:35.845Z,15.27
2023-01-27T16:12:33.220Z,16.10
2023-01-27T16:15:36.927Z,14.50
2023-01-27T16:18:42.742Z,13.60
2023-01-27T16:21:38.019Z,14.10
2023-01-27T16:24:22.649Z,14.43
2023-01-27T16:27:05.441Z,31.17
2023-01-27T16:29:48.847Z,19.07
2023-01-27T16:32:36.724Z,16.93
2023-01-27T16:35:19.499Z,14.70
2023-01-27T16:38:04.432Z,17.40
2023-01-27T16:40:40.009Z,13.93
2023-01-27T16:43:18.978Z,13.60
2023-01-27T16:45:54.082Z,13.10
2023-01-27T16:48:38.220Z,13.13
2023-01-27T16:51:18.967Z,14.80
2023-01-27T16:53:54.644Z,13.57
2023-01-27T16:56:30.124Z,13.10
2023-01-27T16:59:05.924Z,13.33
2023-01-27T17:01:43.961Z,13.30
2023-01-27T17:04:23.495Z,13.20
2023-01-27T17:07:04.448Z,13.23
2023-01-27T17:09:43.843Z,12.37
2023-01-27T17:12:32.889Z,13.43
2023-01-27T17:15:20.688Z,13.37
2023-01-27T17:17:54.599Z,13.97
2023-01-27T17:20:33.437Z,13.17
2023-01-27T17:23:07.057Z,12.83
2023-01-27T17:25:41.675Z,12.40
2023-01-27T17:28:20.535Z,13.00
2023-01-27T17:31:03.650Z,13.17
2023-01-27T17:33:38.712Z,13.23
2023-01-27T17:36:14.438Z,13.77
2023-01-27T17:38:49.672Z,13.03
2023-01-27T17:41:35.616Z,14.27
2023-01-27T17:44:15.195Z,14.63
2023-01-27T17:46:48.269Z,14.73
2023-01-27T17:49:21.550Z,13.57
2023-01-27T17:51:58.022Z,15.63
2023-01-27T17:54:34.211Z,14.83
2023-01-27T17:57:12.821Z,14.73
2023-01-27T17:59:59.243Z,13.43
2023-01-27T18:02:36.564Z,12.87
2023-01-27T18:05:18.292Z,12.20
2023-01-27T18:07:53.179Z,13.20
2023-01-27T18:10:29.334Z,13.77
2023-01-27T18:13:20.794Z,13.47
2023-01-27T18:16:01.525Z,12.10
2023-01-27T18:18:36.940Z,13.87
2023-01-27T18:21:18.495Z,15.13
2023-01-27T18:23:55.690Z,15.77
2023-01-27T18:26:31.772Z,15.37
2023-01-27T18:29:08.293Z,15.73
2023-01-27T18:31:47.331Z,15.17
2023-01-27T18:34:30.398Z,15.73
2023-01-27T18:37:06.133Z,15.63
2023-01-27T18:39:42.407Z,14.57
2023-01-27T18:42:18.838Z,13.17
2023-01-27T18:44:52.667Z,15.43
2023-01-27T18:47:33.230Z,14.60
2023-01-27T18:50:16.906Z,15.63
2023-01-27T18:52:51.679Z,18.27
2023-01-27T18:55:28.333Z,17.40
2023-01-27T18:58:01.849Z,17.80
2023-01-27T19:00:39.133Z,18.47
2023-01-27T19:03:17.923Z,18.23
2023-01-27T19:05:51.870Z,16.93
2023-01-27T19:08:25.993Z,16.03
2023-01-27T19:11:00.294Z,16.50
2023-01-27T19:13:33.334Z,15.07
2023-01-27T19:16:13.718Z,16.80
2023-01-27T19:18:46.916Z,18.97
2023-01-27T19:21:20.137Z,20.87
2023-01-27T19:23:53.164Z,21.83
2023-01-27T19:26:28.274Z,22.00
2023-01-27T19:29:01.559Z,20.20
2023-01-27T19:31:34.796Z,19.80
2023-01-27T19:34:11.706Z,17.00
2023-01-27T19:36:46.162Z,16.83
2023-01-27T19:39:20.561Z,16.47
2023-01-27T19:41:54.896Z,17.20
2023-01-27T19:44:27.966Z,16.73
2023-01-27T19:47:00.960Z,32.13
2023-01-27T19:49:34.045Z,35.43
2023-01-27T19:52:06.985Z,25.60
2023-01-27T19:54:39.962Z,24.20
2023-01-27T19:57:17.401Z,20.43
2023-01-27T19:59:50.380Z,18.90
2023-01-27T20:02:23.416Z,17.17
2023-01-27T20:04:56.498Z,16.63
2023-01-27T20:07:29.478Z,17.30
2023-01-27T20:10:02.484Z,17.00
2023-01-27T20:12:37.958Z,16.50
2023-01-27T20:15:18.210Z,17.47
2023-01-27T20:17:51.799Z,15.60
2023-01-27T20:20:27.208Z,18.53
2023-01-27T20:23:00.233Z,17.70
2023-01-27T20:25:34.102Z,17.93
2023-01-27T20:28:08.749Z,17.70
2023-01-27T20:30:42.772Z,18.20
2023-01-27T20:33:15.840Z,15.30
2023-01-27T20:35:48.831Z,17.10
2023-01-27T20:38:21.866Z,15.60
2023-01-27T20:40:55.273Z,15.63
2023-01-27T20:43:35.130Z,15.63
2023-01-27T20:46:10.878Z,18.37
2023-01-27T20:48:44.044Z,17.13
2023-01-27T20:51:17.645Z,17.07
2023-01-27T20:53:50.610Z,17.90
2023-01-27T20:56:25.388Z,17.63
2023-01-27T20:59:01.563Z,14.30
2023-01-27T21:01:35.114Z,13.40
2023-01-27T21:04:08.388Z,13.00
2023-01-27T21:06:41.377Z,12.87
2023-01-27T21:09:14.392Z,13.00
2023-01-27T21:11:48.264Z,12.23
2023-01-27T21:14:22.568Z,12.87
2023-01-27T21:16:55.618Z,11.83
2023-01-27T21:19:28.617Z,14.23
2023-01-27T21:22:01.632Z,12.83
2023-01-27T21:24:36.260Z,12.60
2023-01-27T21:27:09.479Z,13.20
2023-01-27T21:29:44.069Z,12.07
2023-01-27T21:32:17.758Z,13.27
2023-01-27T21:34:50.735Z,13.17
2023-01-27T21:37:23.744Z,13.97
2023-01-27T21:39:56.732Z,13.30
2023-01-27T21:42:47.229Z,13.13
2023-01-27T21:45:21.983Z,12.23
2023-01-27T21:47:55.132Z,14.47
2023-01-27T21:50:28.101Z,13.83
2023-01-27T21:53:01.140Z,12.63
2023-01-27T21:55:35.415Z,13.43
2023-01-27T21:58:08.462Z,13.87
2023-01-27T22:00:42.860Z,13.77
2023-01-27T22:03:15.921Z,14.63
2023-01-27T22:05:48.940Z,13.60
2023-01-27T22:08:21.902Z,14.30
2023-01-27T22:10:54.894Z,14.07
2023-01-27T22:13:27.953Z,13.67
2023-01-27T22:16:02.854Z,13.53
2023-01-27T22:18:36.752Z,14.37
2023-01-27T22:21:10.457Z,14.13
2023-01-27T22:23:44.916Z,15.43
2023-01-27T22:26:19.838Z,14.17
2023-01-27T22:28:53.626Z,13.27
2023-01-27T22:31:27.969Z,14.10
2023-01-27T22:34:00.952Z,13.70
2023-01-27T22:36:34.000Z,13.80
2023-01-27T22:39:07.049Z,15.13
2023-01-27T22:41:40.054Z,14.93
2023-01-27T22:44:14.395Z,14.60
2023-01-27T22:46:50.686Z,14.17
2023-01-27T22:49:23.663Z,13.90
2023-01-27T22:51:56.676Z,14.40
2023-01-27T22:54:29.641Z,14.50
2023-01-27T22:57:02.702Z,15.07
2023-01-27T22:59:35.817Z,15.77
2023-01-27T23:02:10.500Z,15.10
2023-01-27T23:04:43.480Z,15.07
2023-01-27T23:07:16.515Z,15.40
2023-01-27T23:09:49.852Z,15.97
2023-01-27T23:12:22.858Z,15.97
2023-01-27T23:14:55.851Z,15.00
2023-01-27T23:17:30.179Z,14.53
2023-01-27T23:20:03.398Z,15.30
2023-01-27T23:22:36.608Z,14.67
2023-01-27T23:25:11.619Z,14.70
2023-01-27T23:27:44.821Z,13.90
2023-01-27T23:30:17.975Z,15.27
2023-01-27T23:32:52.419Z,15.60
2023-01-27T23:35:25.456Z,16.07
2023-01-27T23:37:58.428Z,14.00
2023-01-27T23:40:32.884Z,13.90
2023-01-27T23:43:06.835Z,15.47
2023-01-27T23:45:39.846Z,15.83
2023-01-27T23:48:14.244Z,14.90
2023-01-27T23:50:47.252Z,15.07
2023-01-27T23:53:21.401Z,15.43
2023-01-27T23:55:58.620Z,15.10
2023-01-27T23:58:31.693Z,14.70
